sensor_id;sensor_type;location;lat;lon;timestamp;temperature;humidity
59505;DHT22;45321;53.200;5.814;2024-03-02T00:00:08;9.30;70.40
59505;DHT22;45321;53.200;5.814;2024-03-02T00:02:43;9.30;70.40
59505;DHT22;45321;53.200;5.814;2024-03-02T00:05:20;9.30;70.50
59505;DHT22;45321;53.200;5.814;2024-03-02T00:07:55;9.30;70.70
59505;DHT22;45321;53.200;5.814;2024-03-02T00:10:27;9.20;70.70
59505;DHT22;45321;53.200;5.814;2024-03-02T00:12:56;9.20;70.60
59505;DHT22;45321;53.200;5.814;2024-03-02T00:17:57;9.20;70.80
59505;DHT22;45321;53.200;5.814;2024-03-02T00:20:25;9.10;70.90
59505;DHT22;45321;53.200;5.814;2024-03-02T00:23:05;9.10;71.10
59505;DHT22;45321;53.200;5.814;2024-03-02T00:25:54;9.10;71.20
59505;DHT22;45321;53.200;5.814;2024-03-02T00:28:31;9.10;71.80
59505;DHT22;45321;53.200;5.814;2024-03-02T00:33:35;9.10;73.00
59505;DHT22;45321;53.200;5.814;2024-03-02T00:36:02;9.00;73.00
59505;DHT22;45321;53.200;5.814;2024-03-02T00:38:32;9.00;73.10
59505;DHT22;45321;53.200;5.814;2024-03-02T00:40:59;9.00;74.20
59505;DHT22;45321;53.200;5.814;2024-03-02T00:46:06;8.90;75.10
59505;DHT22;45321;53.200;5.814;2024-03-02T00:48:32;8.90;75.20
59505;DHT22;45321;53.200;5.814;2024-03-02T00:51:01;8.80;75.20
59505;DHT22;45321;53.200;5.814;2024-03-02T00:53:30;8.80;75.70
59505;DHT22;45321;53.200;5.814;2024-03-02T00:55:57;8.80;76.30
59505;DHT22;45321;53.200;5.814;2024-03-02T00:58:22;8.80;77.00
59505;DHT22;45321;53.200;5.814;2024-03-02T01:00:48;8.70;76.90
59505;DHT22;45321;53.200;5.814;2024-03-02T01:03:14;8.70;77.30
59505;DHT22;45321;53.200;5.814;2024-03-02T01:05:43;8.70;77.10
59505;DHT22;45321;53.200;5.814;2024-03-02T01:08:10;8.70;77.30
59505;DHT22;45321;53.200;5.814;2024-03-02T01:10:35;8.70;76.90
59505;DHT22;45321;53.200;5.814;2024-03-02T01:13:01;8.70;77.00
59505;DHT22;45321;53.200;5.814;2024-03-02T01:15:27;8.70;76.90
59505;DHT22;45321;53.200;5.814;2024-03-02T01:17:52;8.70;76.90
59505;DHT22;45321;53.200;5.814;2024-03-02T01:20:18;8.70;77.00
59505;DHT22;45321;53.200;5.814;2024-03-02T01:22:44;8.70;76.60
59505;DHT22;45321;53.200;5.814;2024-03-02T01:25:10;8.80;76.20
59505;DHT22;45321;53.200;5.814;2024-03-02T01:27:35;8.80;76.00
59505;DHT22;45321;53.200;5.814;2024-03-02T01:30:01;8.80;75.90
59505;DHT22;45321;53.200;5.814;2024-03-02T01:32:27;8.90;75.80
59505;DHT22;45321;53.200;5.814;2024-03-02T01:34:53;8.90;75.90
59505;DHT22;45321;53.200;5.814;2024-03-02T01:37:18;8.90;75.50
59505;DHT22;45321;53.200;5.814;2024-03-02T01:39:44;8.90;75.50
59505;DHT22;45321;53.200;5.814;2024-03-02T01:42:10;9.00;75.40
59505;DHT22;45321;53.200;5.814;2024-03-02T01:44:40;9.00;75.10
59505;DHT22;45321;53.200;5.814;2024-03-02T01:47:06;9.10;74.70
59505;DHT22;45321;53.200;5.814;2024-03-02T01:49:32;9.10;74.60
59505;DHT22;45321;53.200;5.814;2024-03-02T01:51:59;9.10;74.70
59505;DHT22;45321;53.200;5.814;2024-03-02T01:54:25;9.10;74.60
59505;DHT22;45321;53.200;5.814;2024-03-02T01:56:51;9.10;74.50
59505;DHT22;45321;53.200;5.814;2024-03-02T01:59:17;9.10;74.30
59505;DHT22;45321;53.200;5.814;2024-03-02T02:01:43;9.20;74.10
59505;DHT22;45321;53.200;5.814;2024-03-02T02:04:08;9.20;73.70
59505;DHT22;45321;53.200;5.814;2024-03-02T02:06:34;9.30;73.50
59505;DHT22;45321;53.200;5.814;2024-03-02T02:09:00;9.30;73.80
59505;DHT22;45321;53.200;5.814;2024-03-02T02:11:26;9.30;74.00
59505;DHT22;45321;53.200;5.814;2024-03-02T02:13:52;9.30;74.00
59505;DHT22;45321;53.200;5.814;2024-03-02T02:16:21;9.30;73.90
59505;DHT22;45321;53.200;5.814;2024-03-02T02:18:47;9.30;74.00
59505;DHT22;45321;53.200;5.814;2024-03-02T02:21:12;9.20;74.10
59505;DHT22;45321;53.200;5.814;2024-03-02T02:23:38;9.30;74.30
59505;DHT22;45321;53.200;5.814;2024-03-02T02:26:04;9.30;74.40
59505;DHT22;45321;53.200;5.814;2024-03-02T02:28:30;9.20;74.20
59505;DHT22;45321;53.200;5.814;2024-03-02T02:30:56;9.20;74.30
59505;DHT22;45321;53.200;5.814;2024-03-02T02:33:22;9.30;74.30
59505;DHT22;45321;53.200;5.814;2024-03-02T02:35:47;9.30;73.80
59505;DHT22;45321;53.200;5.814;2024-03-02T02:38:14;9.30;73.90
59505;DHT22;45321;53.200;5.814;2024-03-02T02:40:39;9.30;74.10
59505;DHT22;45321;53.200;5.814;2024-03-02T02:43:05;9.30;73.90
59505;DHT22;45321;53.200;5.814;2024-03-02T02:45:32;9.30;73.90
59505;DHT22;45321;53.200;5.814;2024-03-02T02:47:58;9.30;74.10
59505;DHT22;45321;53.200;5.814;2024-03-02T02:50:23;9.30;74.00
59505;DHT22;45321;53.200;5.814;2024-03-02T02:52:49;9.30;74.40
59505;DHT22;45321;53.200;5.814;2024-03-02T02:55:15;9.30;74.20
59505;DHT22;45321;53.200;5.814;2024-03-02T02:57:42;9.30;74.30
59505;DHT22;45321;53.200;5.814;2024-03-02T03:00:09;9.30;74.40
59505;DHT22;45321;53.200;5.814;2024-03-02T03:02:38;9.30;74.50
59505;DHT22;45321;53.200;5.814;2024-03-02T03:05:09;9.30;74.40
59505;DHT22;45321;53.200;5.814;2024-03-02T03:07:35;9.30;74.60
59505;DHT22;45321;53.200;5.814;2024-03-02T03:10:03;9.30;74.60
59505;DHT22;45321;53.200;5.814;2024-03-02T03:12:32;9.30;74.70
59505;DHT22;45321;53.200;5.814;2024-03-02T03:14:59;9.30;74.80
59505;DHT22;45321;53.200;5.814;2024-03-02T03:17:25;9.30;75.00
59505;DHT22;45321;53.200;5.814;2024-03-02T03:19:51;9.20;75.10
59505;DHT22;45321;53.200;5.814;2024-03-02T03:22:17;9.20;75.10
59505;DHT22;45321;53.200;5.814;2024-03-02T03:24:43;9.30;75.30
59505;DHT22;45321;53.200;5.814;2024-03-02T03:27:09;9.20;75.40
59505;DHT22;45321;53.200;5.814;2024-03-02T03:29:38;9.30;75.50
59505;DHT22;45321;53.200;5.814;2024-03-02T03:32:05;9.30;75.60
59505;DHT22;45321;53.200;5.814;2024-03-02T03:34:35;9.20;75.60
59505;DHT22;45321;53.200;5.814;2024-03-02T03:37:01;9.20;75.70
59505;DHT22;45321;53.200;5.814;2024-03-02T03:39:27;9.20;75.90
59505;DHT22;45321;53.200;5.814;2024-03-02T03:41:54;9.10;76.00
59505;DHT22;45321;53.200;5.814;2024-03-02T03:44:20;9.10;76.10
59505;DHT22;45321;53.200;5.814;2024-03-02T03:46:45;9.10;76.10
59505;DHT22;45321;53.200;5.814;2024-03-02T03:49:11;9.10;76.20
59505;DHT22;45321;53.200;5.814;2024-03-02T03:51:37;9.10;76.40
59505;DHT22;45321;53.200;5.814;2024-03-02T03:54:03;9.10;76.40
59505;DHT22;45321;53.200;5.814;2024-03-02T03:56:28;9.10;76.50
59505;DHT22;45321;53.200;5.814;2024-03-02T03:58:54;9.00;76.60
59505;DHT22;45321;53.200;5.814;2024-03-02T04:01:20;9.10;76.70
59505;DHT22;45321;53.200;5.814;2024-03-02T04:03:48;9.00;76.90
59505;DHT22;45321;53.200;5.814;2024-03-02T04:06:15;9.00;77.00
59505;DHT22;45321;53.200;5.814;2024-03-02T04:08:43;9.00;77.00
59505;DHT22;45321;53.200;5.814;2024-03-02T04:11:08;8.90;77.10
59505;DHT22;45321;53.200;5.814;2024-03-02T04:13:34;9.00;77.10
59505;DHT22;45321;53.200;5.814;2024-03-02T04:16:00;8.90;77.40
59505;DHT22;45321;53.200;5.814;2024-03-02T04:18:26;8.90;77.70
59505;DHT22;45321;53.200;5.814;2024-03-02T04:20:52;8.80;78.40
59505;DHT22;45321;53.200;5.814;2024-03-02T04:23:17;8.80;78.80
59505;DHT22;45321;53.200;5.814;2024-03-02T04:25:43;8.70;79.00
59505;DHT22;45321;53.200;5.814;2024-03-02T04:28:09;8.60;79.20
59505;DHT22;45321;53.200;5.814;2024-03-02T04:30:35;8.60;79.40
59505;DHT22;45321;53.200;5.814;2024-03-02T04:33:00;8.60;79.70
59505;DHT22;45321;53.200;5.814;2024-03-02T04:35:27;8.60;79.90
59505;DHT22;45321;53.200;5.814;2024-03-02T04:37:54;8.50;79.90
59505;DHT22;45321;53.200;5.814;2024-03-02T04:40:20;8.40;80.10
59505;DHT22;45321;53.200;5.814;2024-03-02T04:42:45;8.40;80.50
59505;DHT22;45321;53.200;5.814;2024-03-02T04:45:11;8.30;80.70
59505;DHT22;45321;53.200;5.814;2024-03-02T04:47:37;8.30;81.00
59505;DHT22;45321;53.200;5.814;2024-03-02T04:50:02;8.30;81.00
59505;DHT22;45321;53.200;5.814;2024-03-02T04:52:28;8.30;81.20
59505;DHT22;45321;53.200;5.814;2024-03-02T04:54:54;8.30;81.40
59505;DHT22;45321;53.200;5.814;2024-03-02T04:57:42;8.30;81.30
59505;DHT22;45321;53.200;5.814;2024-03-02T05:00:08;8.30;81.70
59505;DHT22;45321;53.200;5.814;2024-03-02T05:02:34;8.30;81.60
59505;DHT22;45321;53.200;5.814;2024-03-02T05:05:01;8.30;81.60
59505;DHT22;45321;53.200;5.814;2024-03-02T05:07:28;8.20;81.30
59505;DHT22;45321;53.200;5.814;2024-03-02T05:09:53;8.20;81.10
59505;DHT22;45321;53.200;5.814;2024-03-02T05:12:19;8.20;81.00
59505;DHT22;45321;53.200;5.814;2024-03-02T05:15:20;8.10;81.00
59505;DHT22;45321;53.200;5.814;2024-03-02T05:17:47;8.10;80.80
59505;DHT22;45321;53.200;5.814;2024-03-02T05:20:13;8.10;80.70
59505;DHT22;45321;53.200;5.814;2024-03-02T05:22:38;8.10;80.70
59505;DHT22;45321;53.200;5.814;2024-03-02T05:25:07;8.00;80.70
59505;DHT22;45321;53.200;5.814;2024-03-02T05:27:35;7.90;80.70
59505;DHT22;45321;53.200;5.814;2024-03-02T05:30:01;7.90;80.90
59505;DHT22;45321;53.200;5.814;2024-03-02T05:32:26;7.80;81.10
59505;DHT22;45321;53.200;5.814;2024-03-02T05:34:52;7.80;81.10
59505;DHT22;45321;53.200;5.814;2024-03-02T05:37:18;7.80;81.30
59505;DHT22;45321;53.200;5.814;2024-03-02T05:39:44;7.80;81.60
59505;DHT22;45321;53.200;5.814;2024-03-02T05:42:10;7.70;81.60
59505;DHT22;45321;53.200;5.814;2024-03-02T05:44:36;7.70;81.80
59505;DHT22;45321;53.200;5.814;2024-03-02T05:47:02;7.70;81.80
59505;DHT22;45321;53.200;5.814;2024-03-02T05:49:29;7.60;82.00
59505;DHT22;45321;53.200;5.814;2024-03-02T05:51:55;7.60;81.90
59505;DHT22;45321;53.200;5.814;2024-03-02T05:54:21;7.50;81.90
59505;DHT22;45321;53.200;5.814;2024-03-02T05:56:46;7.60;81.80
59505;DHT22;45321;53.200;5.814;2024-03-02T05:59:12;7.50;81.90
59505;DHT22;45321;53.200;5.814;2024-03-02T06:04:04;7.50;81.80
59505;DHT22;45321;53.200;5.814;2024-03-02T06:06:30;7.40;81.70
59505;DHT22;45321;53.200;5.814;2024-03-02T06:08:57;7.40;81.60
59505;DHT22;45321;53.200;5.814;2024-03-02T06:11:24;7.30;81.70
59505;DHT22;45321;53.200;5.814;2024-03-02T06:13:50;7.30;81.70
59505;DHT22;45321;53.200;5.814;2024-03-02T06:16:16;7.30;81.80
59505;DHT22;45321;53.200;5.814;2024-03-02T06:18:41;7.30;81.70
59505;DHT22;45321;53.200;5.814;2024-03-02T06:21:07;7.30;81.80
59505;DHT22;45321;53.200;5.814;2024-03-02T06:23:33;7.30;81.80
59505;DHT22;45321;53.200;5.814;2024-03-02T06:26:00;7.30;81.90
59505;DHT22;45321;53.200;5.814;2024-03-02T06:28:26;7.30;81.90
59505;DHT22;45321;53.200;5.814;2024-03-02T06:30:52;7.30;81.80
59505;DHT22;45321;53.200;5.814;2024-03-02T06:33:17;7.30;81.70
59505;DHT22;45321;53.200;5.814;2024-03-02T06:35:43;7.30;82.00
59505;DHT22;45321;53.200;5.814;2024-03-02T06:38:09;7.20;82.10
59505;DHT22;45321;53.200;5.814;2024-03-02T06:40:34;7.20;82.20
59505;DHT22;45321;53.200;5.814;2024-03-02T06:43:02;7.20;82.20
59505;DHT22;45321;53.200;5.814;2024-03-02T06:45:28;7.10;82.40
59505;DHT22;45321;53.200;5.814;2024-03-02T06:47:56;7.10;82.30
59505;DHT22;45321;53.200;5.814;2024-03-02T06:50:22;7.10;82.40
59505;DHT22;45321;53.200;5.814;2024-03-02T06:52:47;7.00;82.60
59505;DHT22;45321;53.200;5.814;2024-03-02T06:55:13;7.10;82.70
59505;DHT22;45321;53.200;5.814;2024-03-02T06:57:39;7.00;83.00
59505;DHT22;45321;53.200;5.814;2024-03-02T07:00:05;7.00;83.00
59505;DHT22;45321;53.200;5.814;2024-03-02T07:02:34;7.00;83.00
59505;DHT22;45321;53.200;5.814;2024-03-02T07:05:00;7.00;83.30
59505;DHT22;45321;53.200;5.814;2024-03-02T07:07:26;7.00;83.40
59505;DHT22;45321;53.200;5.814;2024-03-02T07:09:51;7.00;83.30
59505;DHT22;45321;53.200;5.814;2024-03-02T07:12:17;7.00;83.50
59505;DHT22;45321;53.200;5.814;2024-03-02T07:14:43;7.00;83.60
59505;DHT22;45321;53.200;5.814;2024-03-02T07:17:27;7.00;83.70
59505;DHT22;45321;53.200;5.814;2024-03-02T07:19:52;7.10;83.70
59505;DHT22;45321;53.200;5.814;2024-03-02T07:22:19;7.10;83.70
59505;DHT22;45321;53.200;5.814;2024-03-02T07:24:45;7.10;83.80
59505;DHT22;45321;53.200;5.814;2024-03-02T07:27:13;7.00;84.10
59505;DHT22;45321;53.200;5.814;2024-03-02T07:29:40;7.10;83.90
59505;DHT22;45321;53.200;5.814;2024-03-02T07:32:06;7.00;83.90
59505;DHT22;45321;53.200;5.814;2024-03-02T07:34:32;7.10;84.00
59505;DHT22;45321;53.200;5.814;2024-03-02T07:36:58;7.10;84.10
59505;DHT22;45321;53.200;5.814;2024-03-02T07:39:24;7.10;84.30
59505;DHT22;45321;53.200;5.814;2024-03-02T07:41:50;7.10;84.20
59505;DHT22;45321;53.200;5.814;2024-03-02T07:44:16;7.10;84.10
59505;DHT22;45321;53.200;5.814;2024-03-02T07:46:45;7.20;84.10
59505;DHT22;45321;53.200;5.814;2024-03-02T07:49:18;7.20;84.30
59505;DHT22;45321;53.200;5.814;2024-03-02T07:51:44;7.20;84.40
59505;DHT22;45321;53.200;5.814;2024-03-02T07:54:09;7.30;84.50
59505;DHT22;45321;53.200;5.814;2024-03-02T07:56:35;7.30;84.20
59505;DHT22;45321;53.200;5.814;2024-03-02T07:59:02;7.40;83.90
59505;DHT22;45321;53.200;5.814;2024-03-02T08:01:28;7.40;83.90
59505;DHT22;45321;53.200;5.814;2024-03-02T08:03:57;7.60;83.80
59505;DHT22;45321;53.200;5.814;2024-03-02T08:06:27;7.60;83.40
59505;DHT22;45321;53.200;5.814;2024-03-02T08:08:57;7.70;83.30
59505;DHT22;45321;53.200;5.814;2024-03-02T08:11:24;7.80;83.10
59505;DHT22;45321;53.200;5.814;2024-03-02T08:13:50;7.80;82.70
59505;DHT22;45321;53.200;5.814;2024-03-02T08:16:16;7.80;82.40
59505;DHT22;45321;53.200;5.814;2024-03-02T08:18:46;7.90;81.90
59505;DHT22;45321;53.200;5.814;2024-03-02T08:21:12;7.90;81.60
59505;DHT22;45321;53.200;5.814;2024-03-02T08:23:38;8.00;81.70
59505;DHT22;45321;53.200;5.814;2024-03-02T08:26:06;8.10;81.40
59505;DHT22;45321;53.200;5.814;2024-03-02T08:28:32;8.10;81.00
59505;DHT22;45321;53.200;5.814;2024-03-02T08:30:58;8.20;80.80
59505;DHT22;45321;53.200;5.814;2024-03-02T08:33:24;8.30;80.70
59505;DHT22;45321;53.200;5.814;2024-03-02T08:35:50;8.30;80.00
59505;DHT22;45321;53.200;5.814;2024-03-02T08:38:16;8.30;79.60
59505;DHT22;45321;53.200;5.814;2024-03-02T08:40:41;8.40;78.50
59505;DHT22;45321;53.200;5.814;2024-03-02T08:43:07;8.30;78.40
59505;DHT22;45321;53.200;5.814;2024-03-02T08:45:33;8.40;78.00
59505;DHT22;45321;53.200;5.814;2024-03-02T08:48:00;8.50;78.10
59505;DHT22;45321;53.200;5.814;2024-03-02T08:50:26;8.60;77.70
59505;DHT22;45321;53.200;5.814;2024-03-02T08:52:52;8.60;77.70
59505;DHT22;45321;53.200;5.814;2024-03-02T08:55:17;8.70;77.10
59505;DHT22;45321;53.200;5.814;2024-03-02T08:57:43;8.80;77.00
59505;DHT22;45321;53.200;5.814;2024-03-02T09:00:09;8.80;76.90
59505;DHT22;45321;53.200;5.814;2024-03-02T09:02:35;8.80;76.60
59505;DHT22;45321;53.200;5.814;2024-03-02T09:05:01;8.90;76.40
59505;DHT22;45321;53.200;5.814;2024-03-02T09:07:27;8.90;76.40
59505;DHT22;45321;53.200;5.814;2024-03-02T09:09:53;9.00;76.60
59505;DHT22;45321;53.200;5.814;2024-03-02T09:12:19;9.20;76.60
59505;DHT22;45321;53.200;5.814;2024-03-02T09:14:45;9.20;76.20
59505;DHT22;45321;53.200;5.814;2024-03-02T09:17:12;9.30;76.20
59505;DHT22;45321;53.200;5.814;2024-03-02T09:19:38;9.30;76.00
59505;DHT22;45321;53.200;5.814;2024-03-02T09:22:04;9.30;75.90
59505;DHT22;45321;53.200;5.814;2024-03-02T09:24:31;9.30;75.40
59505;DHT22;45321;53.200;5.814;2024-03-02T09:26:58;9.30;75.90
59505;DHT22;45321;53.200;5.814;2024-03-02T09:29:24;9.30;75.80
59505;DHT22;45321;53.200;5.814;2024-03-02T09:31:50;9.40;75.90
59505;DHT22;45321;53.200;5.814;2024-03-02T09:34:17;9.30;75.30
59505;DHT22;45321;53.200;5.814;2024-03-02T09:36:43;9.30;74.60
59505;DHT22;45321;53.200;5.814;2024-03-02T09:39:09;9.30;74.70
59505;DHT22;45321;53.200;5.814;2024-03-02T09:41:36;9.40;74.50
59505;DHT22;45321;53.200;5.814;2024-03-02T09:44:03;9.50;74.00
59505;DHT22;45321;53.200;5.814;2024-03-02T09:46:28;9.70;74.20
59505;DHT22;45321;53.200;5.814;2024-03-02T09:48:54;9.80;74.20
59505;DHT22;45321;53.200;5.814;2024-03-02T09:51:20;10.00;73.60
59505;DHT22;45321;53.200;5.814;2024-03-02T09:53:47;10.10;72.40
59505;DHT22;45321;53.200;5.814;2024-03-02T09:56:13;10.20;72.70
59505;DHT22;45321;53.200;5.814;2024-03-02T09:58:39;10.30;71.70
59505;DHT22;45321;53.200;5.814;2024-03-02T10:01:08;10.30;71.20
59505;DHT22;45321;53.200;5.814;2024-03-02T10:03:36;10.30;70.20
59505;DHT22;45321;53.200;5.814;2024-03-02T10:06:28;10.40;70.60
59505;DHT22;45321;53.200;5.814;2024-03-02T10:08:55;10.50;69.80
59505;DHT22;45321;53.200;5.814;2024-03-02T10:11:28;10.50;70.10
59505;DHT22;45321;53.200;5.814;2024-03-02T10:14:08;10.60;70.60
59505;DHT22;45321;53.200;5.814;2024-03-02T10:16:44;10.60;69.00
59505;DHT22;45321;53.200;5.814;2024-03-02T10:19:23;10.50;68.60
59505;DHT22;45321;53.200;5.814;2024-03-02T10:21:50;10.50;68.80
59505;DHT22;45321;53.200;5.814;2024-03-02T10:24:17;10.50;69.00
59505;DHT22;45321;53.200;5.814;2024-03-02T10:26:42;10.50;69.00
59505;DHT22;45321;53.200;5.814;2024-03-02T10:29:09;10.60;69.50
59505;DHT22;45321;53.200;5.814;2024-03-02T10:31:40;10.70;69.50
59505;DHT22;45321;53.200;5.814;2024-03-02T10:34:07;10.80;69.20
59505;DHT22;45321;53.200;5.814;2024-03-02T10:36:34;10.90;67.80
59505;DHT22;45321;53.200;5.814;2024-03-02T10:39:06;10.90;67.60
59505;DHT22;45321;53.200;5.814;2024-03-02T10:41:34;11.00;67.60
59505;DHT22;45321;53.200;5.814;2024-03-02T10:44:02;11.00;67.10
59505;DHT22;45321;53.200;5.814;2024-03-02T10:46:29;11.10;67.20
59505;DHT22;45321;53.200;5.814;2024-03-02T10:48:57;11.20;67.50
59505;DHT22;45321;53.200;5.814;2024-03-02T10:51:28;11.20;67.50
59505;DHT22;45321;53.200;5.814;2024-03-02T10:54:01;11.30;67.50
59505;DHT22;45321;53.200;5.814;2024-03-02T10:56:39;11.50;66.40
59505;DHT22;45321;53.200;5.814;2024-03-02T11:01:56;11.70;66.90
59505;DHT22;45321;53.200;5.814;2024-03-02T11:04:24;11.80;66.20
59505;DHT22;45321;53.200;5.814;2024-03-02T11:06:51;11.80;64.20
59505;DHT22;45321;53.200;5.814;2024-03-02T11:09:22;11.90;63.40
59505;DHT22;45321;53.200;5.814;2024-03-02T11:13:09;12.00;64.30
59505;DHT22;45321;53.200;5.814;2024-03-02T11:15:07;12.00;64.20
59505;DHT22;45321;53.200;5.814;2024-03-02T11:17:35;12.20;63.70
59505;DHT22;45321;53.200;5.814;2024-03-02T11:20:03;12.30;63.10
59505;DHT22;45321;53.200;5.814;2024-03-02T11:22:29;12.50;63.20
59505;DHT22;45321;53.200;5.814;2024-03-02T11:24:55;12.80;62.40
59505;DHT22;45321;53.200;5.814;2024-03-02T11:33:03;13.30;59.70
59505;DHT22;45321;53.200;5.814;2024-03-02T11:35:41;13.50;58.30
59505;DHT22;45321;53.200;5.814;2024-03-02T11:38:09;13.70;57.50
59505;DHT22;45321;53.200;5.814;2024-03-02T11:40:35;13.80;57.20
59505;DHT22;45321;53.200;5.814;2024-03-02T11:43:01;14.10;56.70
59505;DHT22;45321;53.200;5.814;2024-03-02T11:45:28;14.10;56.20
59505;DHT22;45321;53.200;5.814;2024-03-02T11:47:55;14.20;56.60
59505;DHT22;45321;53.200;5.814;2024-03-02T11:50:34;14.50;57.00
59505;DHT22;45321;53.200;5.814;2024-03-02T11:53:05;14.80;55.30
59505;DHT22;45321;53.200;5.814;2024-03-02T11:55:35;15.00;53.60
59505;DHT22;45321;53.200;5.814;2024-03-02T11:58:06;15.20;52.10
59505;DHT22;45321;53.200;5.814;2024-03-02T12:00:32;15.30;52.10
59505;DHT22;45321;53.200;5.814;2024-03-02T12:05:30;15.50;50.80
59505;DHT22;45321;53.200;5.814;2024-03-02T12:08:00;15.70;50.90
59505;DHT22;45321;53.200;5.814;2024-03-02T12:10:27;16.00;51.10
59505;DHT22;45321;53.200;5.814;2024-03-02T12:13:11;16.20;50.60
59505;DHT22;45321;53.200;5.814;2024-03-02T12:15:38;16.40;50.60
59505;DHT22;45321;53.200;5.814;2024-03-02T12:18:04;16.40;49.40
59505;DHT22;45321;53.200;5.814;2024-03-02T12:20:32;16.50;49.40
59505;DHT22;45321;53.200;5.814;2024-03-02T12:23:00;16.70;50.20
59505;DHT22;45321;53.200;5.814;2024-03-02T12:25:26;16.90;49.50
59505;DHT22;45321;53.200;5.814;2024-03-02T12:27:54;16.90;47.20
59505;DHT22;45321;53.200;5.814;2024-03-02T12:30:21;17.10;48.60
59505;DHT22;45321;53.200;5.814;2024-03-02T12:32:47;17.20;47.00
59505;DHT22;45321;53.200;5.814;2024-03-02T12:35:14;17.30;45.10
59505;DHT22;45321;53.200;5.814;2024-03-02T12:37:44;17.50;44.90
59505;DHT22;45321;53.200;5.814;2024-03-02T12:40:11;17.30;42.80
59505;DHT22;45321;53.200;5.814;2024-03-02T12:42:38;17.30;44.90
59505;DHT22;45321;53.200;5.814;2024-03-02T12:45:05;17.10;45.10
59505;DHT22;45321;53.200;5.814;2024-03-02T12:47:31;17.20;47.10
59505;DHT22;45321;53.200;5.814;2024-03-02T12:49:58;17.50;47.10
59505;DHT22;45321;53.200;5.814;2024-03-02T12:52:24;17.80;45.60
59505;DHT22;45321;53.200;5.814;2024-03-02T12:54:50;17.80;44.20
59505;DHT22;45321;53.200;5.814;2024-03-02T12:57:19;17.80;43.80
59505;DHT22;45321;53.200;5.814;2024-03-02T12:59:48;17.50;42.80
59505;DHT22;45321;53.200;5.814;2024-03-02T13:02:17;17.50;44.40
59505;DHT22;45321;53.200;5.814;2024-03-02T13:04:43;17.40;44.40
59505;DHT22;45321;53.200;5.814;2024-03-02T13:07:10;17.50;46.20
59505;DHT22;45321;53.200;5.814;2024-03-02T13:09:39;17.40;46.10
59505;DHT22;45321;53.200;5.814;2024-03-02T13:12:05;17.30;46.20
59505;DHT22;45321;53.200;5.814;2024-03-02T13:14:35;17.20;45.60
59505;DHT22;45321;53.200;5.814;2024-03-02T13:17:01;17.20;45.80
59505;DHT22;45321;53.200;5.814;2024-03-02T13:19:29;17.60;46.00
59505;DHT22;45321;53.200;5.814;2024-03-02T13:21:56;17.80;43.90
59505;DHT22;45321;53.200;5.814;2024-03-02T13:24:23;18.20;44.10
59505;DHT22;45321;53.200;5.814;2024-03-02T13:26:51;18.60;43.30
59505;DHT22;45321;53.200;5.814;2024-03-02T13:29:21;18.80;42.00
59505;DHT22;45321;53.200;5.814;2024-03-02T13:31:47;19.10;40.90
59505;DHT22;45321;53.200;5.814;2024-03-02T13:34:13;19.30;41.30
59505;DHT22;45321;53.200;5.814;2024-03-02T13:36:38;19.40;40.40
59505;DHT22;45321;53.200;5.814;2024-03-02T13:39:04;19.20;39.20
59505;DHT22;45321;53.200;5.814;2024-03-02T13:41:32;19.20;37.90
59505;DHT22;45321;53.200;5.814;2024-03-02T13:43:58;19.30;39.20
59505;DHT22;45321;53.200;5.814;2024-03-02T13:46:27;19.50;38.60
59505;DHT22;45321;53.200;5.814;2024-03-02T13:48:53;19.80;39.00
59505;DHT22;45321;53.200;5.814;2024-03-02T13:51:19;20.00;37.90
59505;DHT22;45321;53.200;5.814;2024-03-02T13:53:45;20.30;37.70
59505;DHT22;45321;53.200;5.814;2024-03-02T13:56:11;20.40;36.60
59505;DHT22;45321;53.200;5.814;2024-03-02T13:58:37;20.50;36.50
59505;DHT22;45321;53.200;5.814;2024-03-02T14:01:03;20.70;37.40
59505;DHT22;45321;53.200;5.814;2024-03-02T14:03:30;20.70;37.50
59505;DHT22;45321;53.200;5.814;2024-03-02T14:05:56;21.10;37.40
59505;DHT22;45321;53.200;5.814;2024-03-02T14:08:23;20.80;35.20
59505;DHT22;45321;53.200;5.814;2024-03-02T14:10:49;21.20;37.40
59505;DHT22;45321;53.200;5.814;2024-03-02T14:13:15;21.50;36.00
59505;DHT22;45321;53.200;5.814;2024-03-02T14:15:41;21.80;36.00
59505;DHT22;45321;53.200;5.814;2024-03-02T14:18:07;22.20;36.60
59505;DHT22;45321;53.200;5.814;2024-03-02T14:20:35;22.20;33.10
59505;DHT22;45321;53.200;5.814;2024-03-02T14:23:01;22.20;33.70
59505;DHT22;45321;53.200;5.814;2024-03-02T14:25:28;22.40;34.10
59505;DHT22;45321;53.200;5.814;2024-03-02T14:27:57;23.00;34.10
59505;DHT22;45321;53.200;5.814;2024-03-02T14:30:23;23.60;33.70
59505;DHT22;45321;53.200;5.814;2024-03-02T14:32:49;23.30;30.60
59505;DHT22;45321;53.200;5.814;2024-03-02T14:35:16;23.60;33.00
59505;DHT22;45321;53.200;5.814;2024-03-02T14:37:42;23.80;32.80
59505;DHT22;45321;53.200;5.814;2024-03-02T14:40:08;24.20;31.10
59505;DHT22;45321;53.200;5.814;2024-03-02T14:42:35;24.70;33.00
59505;DHT22;45321;53.200;5.814;2024-03-02T14:45:02;25.30;31.70
59505;DHT22;45321;53.200;5.814;2024-03-02T14:47:31;25.50;31.30
59505;DHT22;45321;53.200;5.814;2024-03-02T14:49:58;25.70;30.30
59505;DHT22;45321;53.200;5.814;2024-03-02T14:52:23;25.20;29.90
59505;DHT22;45321;53.200;5.814;2024-03-02T14:54:49;24.30;31.00
59505;DHT22;45321;53.200;5.814;2024-03-02T14:57:15;23.40;31.70
59505;DHT22;45321;53.200;5.814;2024-03-02T14:59:41;22.50;32.50
59505;DHT22;45321;53.200;5.814;2024-03-02T15:02:14;21.70;33.80
59505;DHT22;45321;53.200;5.814;2024-03-02T15:04:40;21.20;34.40
59505;DHT22;45321;53.200;5.814;2024-03-02T15:07:06;20.50;35.60
59505;DHT22;45321;53.200;5.814;2024-03-02T15:09:32;19.70;37.40
59505;DHT22;45321;53.200;5.814;2024-03-02T15:12:00;19.20;38.60
59505;DHT22;45321;53.200;5.814;2024-03-02T15:14:26;18.50;39.70
59505;DHT22;45321;53.200;5.814;2024-03-02T15:16:54;18.00;40.50
59505;DHT22;45321;53.200;5.814;2024-03-02T15:19:25;17.60;41.50
59505;DHT22;45321;53.200;5.814;2024-03-02T15:21:50;17.30;42.40
59505;DHT22;45321;53.200;5.814;2024-03-02T15:24:16;17.00;43.10
59505;DHT22;45321;53.200;5.814;2024-03-02T15:26:42;17.30;43.70
59505;DHT22;45321;53.200;5.814;2024-03-02T15:29:08;17.70;42.90
59505;DHT22;45321;53.200;5.814;2024-03-02T15:31:34;17.70;43.10
59505;DHT22;45321;53.200;5.814;2024-03-02T15:34:03;17.30;43.70
59505;DHT22;45321;53.200;5.814;2024-03-02T15:36:29;17.00;44.60
59505;DHT22;45321;53.200;5.814;2024-03-02T15:38:54;16.80;45.70
59505;DHT22;45321;53.200;5.814;2024-03-02T15:41:21;16.70;46.40
59505;DHT22;45321;53.200;5.814;2024-03-02T15:43:46;16.70;47.30
59505;DHT22;45321;53.200;5.814;2024-03-02T15:46:12;16.80;47.50
59505;DHT22;45321;53.200;5.814;2024-03-02T15:48:38;16.80;47.60
59505;DHT22;45321;53.200;5.814;2024-03-02T15:51:04;16.80;46.40
59505;DHT22;45321;53.200;5.814;2024-03-02T15:53:30;16.70;46.70
59505;DHT22;45321;53.200;5.814;2024-03-02T15:55:56;16.60;46.90
59505;DHT22;45321;53.200;5.814;2024-03-02T15:58:22;16.40;47.50
59505;DHT22;45321;53.200;5.814;2024-03-02T16:00:47;16.20;47.50